Terminal Aerodrome Forecast
Issued by NWS

Home | Current Version | Previous Version | Text Only | Print | Product List | Glossary On
Versions: 1 2 3 4 5 6 7 8 9 10 11 12 13 14 15 16 17 18 19 20 21
000
FTUS43 KILX 311727
TAFDEC
TAF
KDEC 311727Z 3118/0118 VRB06KT P6SM VCTS SCT060CB BKN150
      TEMPO 3118/3119 VRB15G25KT 3SM TSRA BKN035CB
     FM010100 16005KT P6SM VCSH BKN060
     FM010900 16005KT P6SM SCT050 BKN100 PROB30 0109/0112 6SM TSRA
      OVC060CB
     FM011400 24004KT P6SM VCTS SCT050CB BKN120=

USA.gov is the U.S. government's official web portal to all federal, state and local government web resources and services.